Time;durP1;ratioP1;P1;durP2;ratioP2;P2;SDS_P1;SDS_P2;PMS_P1;PMS_P2;Temp;Humidity;BMP_temperature;BMP_pressure;BME280_temperature;BME280_humidity;BME280_pressure;Samples;Min_cycle;Max_cycle;Signal;HPM_P1;HPM_P2
2021/06/07 00:01:01;;;;;;;;;;;18.10;74.30;;;;;;5071387;28;19915;-72
2021/06/07 00:03:27;;;;;;;;;;;18.00;77.70;;;;;;5071945;28;19912;-73
2021/06/07 00:05:52;;;;;;;;;;;18.00;75.40;;;;;;5067748;28;19954;-73
2021/06/07 00:08:18;;;;;;;;;;;18.00;77.60;;;;;;5068819;28;19908;-72
2021/06/07 00:10:43;;;;;;;;;;;17.90;76.10;;;;;;5059225;28;19912;-73
2021/06/07 00:13:09;;;;;;;;;;;17.90;75.10;;;;;;5064476;28;19958;-72
2021/06/07 00:15:35;;;;;;;;;;;17.80;79.00;;;;;;5069309;28;19908;-73
2021/06/07 00:18:01;;;;;;;;;;;17.70;78.60;;;;;;5065165;28;19954;-73
2021/06/07 00:20:35;;;;;;;;;;;17.70;77.20;;;;;;5067106;28;19909;-73
2021/06/07 00:23:01;;;;;;;;;;;17.60;76.90;;;;;;5074406;28;19909;-73
2021/06/07 00:25:27;;;;;;;;;;;17.60;77.30;;;;;;5073094;28;19915;-72
2021/06/07 00:27:52;;;;;;;;;;;17.50;77.80;;;;;;5068301;28;19994;-73
2021/06/07 00:30:18;;;;;;;;;;;17.50;78.90;;;;;;5072563;28;19961;-73
2021/06/07 00:32:43;;;;;;;;;;;17.40;81.50;;;;;;5069224;28;19916;-72
2021/06/07 00:35:09;;;;;;;;;;;17.30;78.20;;;;;;5068182;28;19912;-72
2021/06/07 00:37:34;;;;;;;;;;;17.30;80.40;;;;;;5067110;28;20355;-72
2021/06/07 00:40:00;;;;;;;;;;;17.20;81.20;;;;;;5069364;28;19908;-73
2021/06/07 00:42:25;;;;;;;;;;;17.20;81.60;;;;;;5068540;28;19961;-72
2021/06/07 00:44:51;;;;;;;;;;;17.20;82.10;;;;;;5076955;28;20098;-72
2021/06/07 00:47:18;;;;;;;;;;;17.10;79.20;;;;;;5076029;28;19999;-72
2021/06/07 00:49:44;;;;;;;;;;;17.10;80.20;;;;;;5071274;28;19908;-73
2021/06/07 00:52:09;;;;;;;;;;;17.10;80.70;;;;;;5071725;28;20264;-74
2021/06/07 00:54:34;;;;;;;;;;;17.00;83.20;;;;;;5067571;28;19916;-74
2021/06/07 00:57:00;;;;;;;;;;;17.00;82.50;;;;;;5065843;28;19962;-73
2021/06/07 00:59:25;;;;;;;;;;;17.00;81.60;;;;;;5071705;28;19908;-73
2021/06/07 01:01:51;;;;;;;;;;;16.90;81.80;;;;;;5068581;28;20515;-74
2021/06/07 01:04:16;;;;;;;;;;;16.90;85.60;;;;;;5068390;28;19914;-73
2021/06/07 01:06:42;;;;;;;;;;;16.70;85.00;;;;;;5064679;28;19995;-74
2021/06/07 01:09:08;;;;;;;;;;;16.70;84.20;;;;;;5056816;28;20720;-73
2021/06/07 01:11:34;;;;;;;;;;;16.70;85.40;;;;;;5070089;28;20589;-74
2021/06/07 01:13:59;;;;;;;;;;;16.70;85.30;;;;;;5069258;28;19909;-73
2021/06/07 01:16:25;;;;;;;;;;;16.60;84.50;;;;;;5070523;28;19908;-73
2021/06/07 01:18:50;;;;;;;;;;;16.60;85.40;;;;;;5080599;28;19908;-73
2021/06/07 01:21:18;;;;;;;;;;;16.50;86.20;;;;;;5070665;28;19961;-73
2021/06/07 01:23:45;;;;;;;;;;;16.50;85.80;;;;;;5068357;28;20407;-73
2021/06/07 01:26:12;;;;;;;;;;;16.50;86.80;;;;;;5065208;28;19995;-73
2021/06/07 01:28:39;;;;;;;;;;;16.50;85.70;;;;;;5069768;28;20356;-73
2021/06/07 01:31:04;;;;;;;;;;;16.40;87.70;;;;;;5069429;28;19983;-73
2021/06/07 01:33:30;;;;;;;;;;;16.40;88.00;;;;;;5070117;28;20003;-73
2021/06/07 01:35:57;;;;;;;;;;;16.40;88.60;;;;;;5071972;28;19912;-73
2021/06/07 01:38:23;;;;;;;;;;;16.30;89.30;;;;;;5065241;28;20160;-73
2021/06/07 01:40:50;;;;;;;;;;;16.30;87.20;;;;;;5064057;28;20888;-73
2021/06/07 01:43:16;;;;;;;;;;;16.20;88.40;;;;;;5069091;28;19912;-73
2021/06/07 01:45:42;;;;;;;;;;;16.20;86.90;;;;;;5073172;28;19916;-72
2021/06/07 01:48:08;;;;;;;;;;;16.20;87.60;;;;;;5068061;28;20469;-72
2021/06/07 01:50:34;;;;;;;;;;;16.20;88.90;;;;;;5066063;28;19938;-74
2021/06/07 01:53:00;;;;;;;;;;;16.10;90.00;;;;;;5064435;28;20363;-73
2021/06/07 01:55:31;;;;;;;;;;;16.00;89.80;;;;;;5069367;28;19932;-72
2021/06/07 01:57:57;;;;;;;;;;;16.10;90.30;;;;;;5068163;28;19912;-72
2021/06/07 02:00:35;;;;;;;;;;;16.00;89.10;;;;;;5073653;28;20531;-72
2021/06/07 02:03:00;;;;;;;;;;;16.00;90.50;;;;;;5066561;28;19908;-71
2021/06/07 02:05:28;;;;;;;;;;;15.90;90.70;;;;;;5068722;28;19908;-72
2021/06/07 02:07:54;;;;;;;;;;;15.90;90.80;;;;;;5063299;28;19908;-73
2021/06/07 02:10:21;;;;;;;;;;;15.90;90.80;;;;;;5063188;28;20351;-73
2021/06/07 02:12:47;;;;;;;;;;;15.80;91.00;;;;;;5073433;28;20270;-72
2021/06/07 02:15:13;;;;;;;;;;;15.80;90.90;;;;;;5070526;28;19912;-73
2021/06/07 02:17:47;;;;;;;;;;;15.80;91.60;;;;;;5072025;28;19912;-73
2021/06/07 02:20:14;;;;;;;;;;;15.70;91.70;;;;;;5068965;28;19919;-73
2021/06/07 02:22:41;;;;;;;;;;;15.70;91.40;;;;;;5066119;28;19912;-73
2021/06/07 02:25:07;;;;;;;;;;;15.60;91.60;;;;;;5065383;28;20010;-73
2021/06/07 02:27:33;;;;;;;;;;;15.60;92.00;;;;;;5070155;28;20363;-73
2021/06/07 02:30:00;;;;;;;;;;;15.50;92.80;;;;;;5067614;28;19926;-73
2021/06/07 02:32:25;;;;;;;;;;;15.50;92.80;;;;;;5062627;28;20013;-73
2021/06/07 02:34:51;;;;;;;;;;;15.50;93.00;;;;;;5067399;28;19912;-73
2021/06/07 02:37:16;;;;;;;;;;;15.40;92.80;;;;;;5075140;28;19965;-73
2021/06/07 02:39:42;;;;;;;;;;;15.40;93.70;;;;;;5074022;28;19912;-73
2021/06/07 02:42:09;;;;;;;;;;;15.40;93.30;;;;;;5062880;28;19955;-73
2021/06/07 02:44:34;;;;;;;;;;;15.40;94.00;;;;;;5068521;28;19954;-73
2021/06/07 02:47:00;;;;;;;;;;;15.30;94.00;;;;;;5069068;28;19909;-73
2021/06/07 02:49:25;;;;;;;;;;;15.30;94.50;;;;;;5063009;28;19909;-73
2021/06/07 02:51:50;;;;;;;;;;;15.20;94.10;;;;;;5064195;28;19980;-73
2021/06/07 02:54:16;;;;;;;;;;;15.20;94.80;;;;;;5061190;28;20392;-73
2021/06/07 02:56:41;;;;;;;;;;;15.20;95.00;;;;;;5073261;28;19908;-73
2021/06/07 02:59:07;;;;;;;;;;;15.20;94.80;;;;;;5070483;28;19912;-73
2021/06/07 03:01:32;;;;;;;;;;;15.20;96.10;;;;;;5069773;28;20305;-73
2021/06/07 03:03:58;;;;;;;;;;;15.10;95.00;;;;;;5068283;28;20424;-73
2021/06/07 03:06:23;;;;;;;;;;;15.20;95.00;;;;;;5069021;28;19912;-72
2021/06/07 03:08:48;;;;;;;;;;;15.10;95.40;;;;;;5074068;28;19908;-73
2021/06/07 03:11:14;;;;;;;;;;;15.10;96.30;;;;;;5063852;28;19915;-73
2021/06/07 03:13:40;;;;;;;;;;;15.10;96.80;;;;;;5063884;28;19909;-73
2021/06/07 03:16:06;;;;;;;;;;;15.10;96.30;;;;;;5069608;28;19969;-72
2021/06/07 03:18:31;;;;;;;;;;;15.10;96.80;;;;;;5064959;28;20003;-73
2021/06/07 03:20:57;;;;;;;;;;;15.10;97.00;;;;;;5070552;28;20351;-73
2021/06/07 03:23:25;;;;;;;;;;;15.10;97.10;;;;;;5069542;28;20402;-72
2021/06/07 03:25:51;;;;;;;;;;;15.00;96.90;;;;;;5074451;28;19926;-73
2021/06/07 03:28:18;;;;;;;;;;;15.00;96.90;;;;;;5066479;28;20002;-73
2021/06/07 03:30:44;;;;;;;;;;;15.00;96.30;;;;;;5061368;28;19911;-73
2021/06/07 03:33:10;;;;;;;;;;;15.10;96.10;;;;;;5067687;28;19955;-73
2021/06/07 03:35:37;;;;;;;;;;;15.10;96.20;;;;;;5063687;28;19947;-74
2021/06/07 03:38:03;;;;;;;;;;;15.10;96.70;;;;;;5068199;28;19920;-73
2021/06/07 03:40:29;;;;;;;;;;;15.10;97.10;;;;;;5064910;28;19995;-73
2021/06/07 03:42:55;;;;;;;;;;;15.10;96.10;;;;;;5062850;28;19923;-73
2021/06/07 03:45:20;;;;;;;;;;;15.10;97.10;;;;;;5070211;28;19916;-73
2021/06/07 03:47:46;;;;;;;;;;;15.10;97.20;;;;;;5067619;28;20390;-73
2021/06/07 03:50:13;;;;;;;;;;;15.00;97.20;;;;;;5073045;28;19944;-73
2021/06/07 03:52:39;;;;;;;;;;;15.10;96.80;;;;;;5067312;28;20332;-73
2021/06/07 03:55:05;;;;;;;;;;;15.10;96.60;;;;;;5062704;28;19916;-73
2021/06/07 03:57:31;;;;;;;;;;;15.20;96.90;;;;;;5069162;28;19966;-73
2021/06/07 03:59:56;;;;;;;;;;;15.20;96.80;;;;;;5067212;28;19909;-72
2021/06/07 04:02:22;;;;;;;;;;;15.20;96.50;;;;;;5068962;28;19966;-73
2021/06/07 04:04:48;;;;;;;;;;;15.10;97.10;;;;;;5066594;28;19913;-73
2021/06/07 04:07:13;;;;;;;;;;;15.20;97.60;;;;;;5075863;28;20690;-72
2021/06/07 04:09:40;;;;;;;;;;;15.20;97.80;;;;;;5066700;28;19935;-73
2021/06/07 04:12:06;;;;;;;;;;;15.20;97.20;;;;;;5068432;28;19916;-73
2021/06/07 04:14:32;;;;;;;;;;;15.20;97.10;;;;;;5065148;28;19919;-73
2021/06/07 04:16:58;;;;;;;;;;;15.20;97.30;;;;;;5073758;28;19908;-73
2021/06/07 04:19:23;;;;;;;;;;;15.20;97.70;;;;;;5069784;28;19935;-74
2021/06/07 04:21:49;;;;;;;;;;;15.20;97.10;;;;;;5065235;28;20452;-72
2021/06/07 04:24:14;;;;;;;;;;;15.30;97.10;;;;;;5070816;28;20360;-73
2021/06/07 04:26:39;;;;;;;;;;;15.30;96.80;;;;;;5068170;28;20274;-72
2021/06/07 04:29:05;;;;;;;;;;;15.40;96.30;;;;;;5074116;28;20438;-73
2021/06/07 04:31:31;;;;;;;;;;;15.40;97.40;;;;;;5072434;28;19908;-73
2021/06/07 04:33:56;;;;;;;;;;;15.50;97.80;;;;;;5073448;28;19939;-72
2021/06/07 04:36:22;;;;;;;;;;;15.50;96.70;;;;;;5064796;28;20009;-73
2021/06/07 04:38:47;;;;;;;;;;;15.50;96.50;;;;;;5070523;28;20575;-72
2021/06/07 04:41:13;;;;;;;;;;;15.50;97.60;;;;;;5062298;28;19954;-73
2021/06/07 04:43:38;;;;;;;;;;;15.60;96.70;;;;;;5066353;28;20412;-73
2021/06/07 04:46:04;;;;;;;;;;;15.60;96.20;;;;;;5071385;28;19915;-73
2021/06/07 04:48:29;;;;;;;;;;;15.60;96.50;;;;;;5071127;28;20037;-73
2021/06/07 04:50:55;;;;;;;;;;;15.60;94.80;;;;;;5068867;28;19908;-73
2021/06/07 04:53:21;;;;;;;;;;;15.70;96.10;;;;;;5075939;28;19915;-73
2021/06/07 04:55:47;;;;;;;;;;;15.70;95.30;;;;;;5069496;28;19920;-73
2021/06/07 04:58:14;;;;;;;;;;;15.70;94.70;;;;;;5071387;28;19954;-73
2021/06/07 05:00:42;;;;;;;;;;;15.80;95.00;;;;;;5068836;28;20279;-72
2021/06/07 05:03:07;;;;;;;;;;;15.80;94.20;;;;;;5061937;28;20030;-72
2021/06/07 05:05:33;;;;;;;;;;;15.90;93.70;;;;;;5060991;28;19938;-72
2021/06/07 05:07:59;;;;;;;;;;;15.90;94.10;;;;;;5063024;28;19908;-73
2021/06/07 05:10:24;;;;;;;;;;;16.00;93.50;;;;;;5056753;28;19962;-75
2021/06/07 05:12:50;;;;;;;;;;;16.00;93.30;;;;;;5059617;28;19916;-72
2021/06/07 05:15:16;;;;;;;;;;;16.10;92.50;;;;;;5066288;28;19977;-72
2021/06/07 05:17:42;;;;;;;;;;;16.10;94.00;;;;;;5063710;28;19913;-72
2021/06/07 05:20:09;;;;;;;;;;;16.10;93.10;;;;;;5063228;28;19908;-72
2021/06/07 05:22:34;;;;;;;;;;;16.20;92.80;;;;;;5063822;28;19963;-72
2021/06/07 05:25:00;;;;;;;;;;;16.20;92.50;;;;;;5061619;28;20324;-71
2021/06/07 05:27:26;;;;;;;;;;;16.20;91.40;;;;;;5067908;28;20243;-72
2021/06/07 05:29:51;;;;;;;;;;;16.30;92.70;;;;;;5074980;28;20624;-71
2021/06/07 05:32:16;;;;;;;;;;;16.30;92.60;;;;;;5068861;28;19934;-71
2021/06/07 05:34:42;;;;;;;;;;;16.40;92.50;;;;;;5066108;28;19912;-71
2021/06/07 05:37:08;;;;;;;;;;;16.40;91.90;;;;;;5069248;28;19970;-72
2021/06/07 05:39:33;;;;;;;;;;;16.50;91.60;;;;;;5068220;28;19991;-74
2021/06/07 05:41:59;;;;;;;;;;;16.50;90.90;;;;;;5068437;28;19908;-73
2021/06/07 05:44:24;;;;;;;;;;;16.50;90.30;;;;;;5072612;28;19912;-72
2021/06/07 05:46:51;;;;;;;;;;;16.60;90.20;;;;;;5063825;28;20517;-71
2021/06/07 05:49:17;;;;;;;;;;;16.60;88.80;;;;;;5057710;28;20327;-72
2021/06/07 05:51:43;;;;;;;;;;;16.70;90.20;;;;;;5068710;28;20035;-72
2021/06/07 05:54:09;;;;;;;;;;;16.80;90.40;;;;;;5066762;28;20545;-71
2021/06/07 05:56:37;;;;;;;;;;;16.80;90.20;;;;;;5076256;28;19908;-71
2021/06/07 05:59:03;;;;;;;;;;;16.80;88.50;;;;;;5072984;28;19919;-73
2021/06/07 06:01:31;;;;;;;;;;;16.90;88.10;;;;;;5076135;28;19920;-72
2021/06/07 06:03:56;;;;;;;;;;;16.90;85.90;;;;;;5068078;28;20278;-71
2021/06/07 06:06:22;;;;;;;;;;;17.00;85.00;;;;;;5068493;28;19908;-75
2021/06/07 06:08:49;;;;;;;;;;;17.00;85.70;;;;;;5062048;28;19909;-72
2021/06/07 06:11:14;;;;;;;;;;;17.10;87.00;;;;;;5068057;28;19931;-72
2021/06/07 06:13:40;;;;;;;;;;;17.10;86.10;;;;;;5081160;28;20358;-72
2021/06/07 06:16:09;;;;;;;;;;;17.20;85.30;;;;;;5068925;28;19923;-71
2021/06/07 06:18:37;;;;;;;;;;;17.20;85.80;;;;;;5062970;28;19912;-71
2021/06/07 06:21:02;;;;;;;;;;;17.30;85.60;;;;;;5071981;28;20633;-70
2021/06/07 06:23:28;;;;;;;;;;;17.30;85.50;;;;;;5064308;28;19920;-73
2021/06/07 06:25:53;;;;;;;;;;;17.40;82.70;;;;;;5058612;28;19912;-73
2021/06/07 06:28:19;;;;;;;;;;;17.40;81.10;;;;;;5065707;28;19935;-73
2021/06/07 06:30:44;;;;;;;;;;;17.50;82.20;;;;;;5066654;28;19908;-73
2021/06/07 06:33:09;;;;;;;;;;;17.50;81.30;;;;;;5066994;28;19908;-74
2021/06/07 06:35:35;;;;;;;;;;;17.60;82.00;;;;;;5066226;28;19916;-74
2021/06/07 06:38:00;;;;;;;;;;;17.60;81.70;;;;;;5064787;28;19916;-74
2021/06/07 06:40:31;;;;;;;;;;;17.70;81.80;;;;;;5067446;28;20456;-73
2021/06/07 06:42:57;;;;;;;;;;;17.70;82.20;;;;;;5065946;28;19956;-74
2021/06/07 06:45:23;;;;;;;;;;;17.70;80.60;;;;;;5067949;28;20031;-73
2021/06/07 06:47:57;;;;;;;;;;;17.80;78.70;;;;;;5063520;28;20426;-74
2021/06/07 06:50:25;;;;;;;;;;;17.80;81.30;;;;;;5067272;28;19954;-74
2021/06/07 06:52:50;;;;;;;;;;;17.90;81.70;;;;;;5066037;28;20359;-73
2021/06/07 06:55:16;;;;;;;;;;;17.90;81.30;;;;;;5066149;28;19931;-72
2021/06/07 06:57:42;;;;;;;;;;;18.00;80.80;;;;;;5066669;28;19965;-72
2021/06/07 07:00:08;;;;;;;;;;;18.10;80.50;;;;;;5064203;28;20001;-72
2021/06/07 07:02:34;;;;;;;;;;;18.10;77.70;;;;;;5065887;28;19918;-73
2021/06/07 07:04:59;;;;;;;;;;;18.20;81.40;;;;;;5066220;28;19999;-73
2021/06/07 07:07:24;;;;;;;;;;;18.20;79.90;;;;;;5066241;28;19966;-72
2021/06/07 07:09:50;;;;;;;;;;;18.30;78.80;;;;;;5064870;28;20543;-73
2021/06/07 07:12:16;;;;;;;;;;;18.40;78.30;;;;;;5065993;28;19975;-73
2021/06/07 07:14:41;;;;;;;;;;;18.50;80.20;;;;;;5066111;28;19991;-74
2021/06/07 07:17:07;;;;;;;;;;;18.50;77.60;;;;;;5065429;28;19917;-73
2021/06/07 07:19:33;;;;;;;;;;;18.60;76.60;;;;;;5065072;28;19916;-74
2021/06/07 07:22:00;;;;;;;;;;;18.60;77.30;;;;;;5066301;28;19908;-73
2021/06/07 07:24:25;;;;;;;;;;;18.70;75.90;;;;;;5065448;28;20366;-73
2021/06/07 07:26:51;;;;;;;;;;;18.70;76.10;;;;;;5065795;28;19920;-74
2021/06/07 07:29:16;;;;;;;;;;;18.80;78.80;;;;;;5065736;28;19927;-72
2021/06/07 07:31:42;;;;;;;;;;;18.80;73.80;;;;;;5066196;28;19919;-72
2021/06/07 07:34:07;;;;;;;;;;;18.90;75.70;;;;;;5061756;28;19920;-72
2021/06/07 07:36:33;;;;;;;;;;;19.00;76.00;;;;;;5062275;28;19962;-72
2021/06/07 07:38:58;;;;;;;;;;;19.00;75.50;;;;;;5067441;28;19920;-73
2021/06/07 07:41:25;;;;;;;;;;;19.10;74.00;;;;;;5066443;28;19932;-72
2021/06/07 07:43:50;;;;;;;;;;;19.20;74.80;;;;;;5064559;28;20128;-72
2021/06/07 07:46:16;;;;;;;;;;;19.20;74.10;;;;;;5066469;28;19915;-72
2021/06/07 07:48:41;;;;;;;;;;;19.30;74.50;;;;;;5062770;28;19908;-73
2021/06/07 07:51:07;;;;;;;;;;;19.40;74.50;;;;;;5064480;28;20102;-74
2021/06/07 07:53:32;;;;;;;;;;;19.50;72.40;;;;;;5064772;28;19916;-71
2021/06/07 07:55:58;;;;;;;;;;;19.50;73.30;;;;;;5061159;28;19927;-72
2021/06/07 07:58:23;;;;;;;;;;;19.50;73.00;;;;;;5063792;28;19938;-74
2021/06/07 08:00:49;;;;;;;;;;;19.60;73.40;;;;;;5065308;28;19917;-74
2021/06/07 08:03:15;;;;;;;;;;;19.80;72.90;;;;;;5063810;28;19947;-72
2021/06/07 08:05:41;;;;;;;;;;;19.80;73.30;;;;;;5066332;28;19908;-72
2021/06/07 08:08:06;;;;;;;;;;;19.90;70.00;;;;;;5066134;28;19916;-72
2021/06/07 08:10:32;;;;;;;;;;;19.90;72.20;;;;;;5065400;28;19960;-72
2021/06/07 08:13:01;;;;;;;;;;;20.00;73.00;;;;;;5063912;28;19935;-72
2021/06/07 08:15:27;;;;;;;;;;;20.10;76.20;;;;;;5066443;28;19954;-73
2021/06/07 08:17:52;;;;;;;;;;;20.20;72.10;;;;;;5067851;28;19916;-72
2021/06/07 08:20:18;;;;;;;;;;;20.30;71.10;;;;;;5063621;28;19959;-73
2021/06/07 08:22:45;;;;;;;;;;;20.30;67.90;;;;;;5065461;28;19915;-73
2021/06/07 08:25:11;;;;;;;;;;;20.40;69.50;;;;;;5064213;28;19965;-73
2021/06/07 08:27:37;;;;;;;;;;;20.50;68.70;;;;;;5067008;28;19951;-73
2021/06/07 08:30:04;;;;;;;;;;;20.50;71.10;;;;;;5064152;28;20409;-74
2021/06/07 08:32:29;;;;;;;;;;;20.60;69.40;;;;;;5065034;28;20017;-73
2021/06/07 08:34:54;;;;;;;;;;;20.70;67.90;;;;;;5064749;28;19912;-74
2021/06/07 08:37:20;;;;;;;;;;;20.80;67.00;;;;;;5064045;28;19912;-73
2021/06/07 08:39:46;;;;;;;;;;;20.90;66.10;;;;;;5065673;28;20295;-73
2021/06/07 08:42:11;;;;;;;;;;;20.90;68.30;;;;;;5064462;28;19909;-73
2021/06/07 08:44:38;;;;;;;;;;;21.00;67.30;;;;;;5065561;28;19954;-74
2021/06/07 08:47:03;;;;;;;;;;;21.10;67.90;;;;;;5065488;28;19916;-73
2021/06/07 08:49:29;;;;;;;;;;;21.20;69.20;;;;;;5068158;28;19908;-73
2021/06/07 08:51:54;;;;;;;;;;;21.20;67.50;;;;;;5066300;28;19909;-74
2021/06/07 08:54:20;;;;;;;;;;;21.30;63.80;;;;;;5068482;28;19916;-73
2021/06/07 08:56:46;;;;;;;;;;;21.40;60.90;;;;;;5068723;28;19939;-74
2021/06/07 08:59:12;;;;;;;;;;;21.50;61.00;;;;;;5068531;28;19920;-74
2021/06/07 09:01:38;;;;;;;;;;;21.50;61.70;;;;;;5067477;28;19943;-73
2021/06/07 09:04:14;;;;;;;;;;;21.60;62.30;;;;;;5066970;28;20324;-72
2021/06/07 09:06:40;;;;;;;;;;;21.60;62.60;;;;;;5071815;28;19904;-73
2021/06/07 09:09:07;;;;;;;;;;;21.80;66.30;;;;;;5070255;28;19908;-74
2021/06/07 09:11:56;;;;;;;;;;;21.80;63.00;;;;;;5068508;28;19912;-73
2021/06/07 09:14:31;;;;;;;;;;;21.90;59.50;;;;;;5062853;28;19948;-74
2021/06/07 09:16:57;;;;;;;;;;;22.00;58.90;;;;;;5071512;28;19962;-73
2021/06/07 09:19:30;;;;;;;;;;;22.00;63.50;;;;;;5071042;28;19916;-73
2021/06/07 09:21:56;;;;;;;;;;;22.10;60.40;;;;;;5071146;28;19952;-73
2021/06/07 09:24:22;;;;;;;;;;;22.20;59.80;;;;;;5070020;28;20000;-73
2021/06/07 09:26:49;;;;;;;;;;;22.20;60.30;;;;;;5071166;28;20013;-73
2021/06/07 09:29:24;;;;;;;;;;;22.20;58.90;;;;;;5067458;28;19912;-74
2021/06/07 09:31:55;;;;;;;;;;;22.30;57.70;;;;;;5070130;28;19908;-73
2021/06/07 09:34:24;;;;;;;;;;;22.40;59.80;;;;;;5060901;28;21357;-72
2021/06/07 09:36:50;;;;;;;;;;;22.40;56.70;;;;;;5063586;28;19908;-72
2021/06/07 09:39:17;;;;;;;;;;;22.50;56.40;;;;;;5068788;28;19942;-72
2021/06/07 09:41:47;;;;;;;;;;;22.50;55.90;;;;;;5070592;28;19974;-72
2021/06/07 09:44:26;;;;;;;;;;;22.60;54.70;;;;;;5069724;28;19912;-73
2021/06/07 09:46:53;;;;;;;;;;;22.70;54.70;;;;;;5066467;28;19915;-73
2021/06/07 09:49:19;;;;;;;;;;;22.70;54.20;;;;;;5061798;28;19908;-73
2021/06/07 09:51:53;;;;;;;;;;;22.70;53.80;;;;;;5066612;28;19916;-74
2021/06/07 09:54:18;;;;;;;;;;;22.70;55.70;;;;;;5060321;28;20333;-74
2021/06/07 09:56:54;;;;;;;;;;;22.80;55.70;;;;;;5069524;28;19913;-73
2021/06/07 09:59:39;;;;;;;;;;;22.90;52.60;;;;;;5066587;28;19912;-75
2021/06/07 10:02:16;;;;;;;;;;;23.00;53.90;;;;;;5069883;28;19908;-74
2021/06/07 10:04:48;;;;;;;;;;;23.00;56.10;;;;;;5069101;28;20298;-74
2021/06/07 10:07:14;;;;;;;;;;;23.10;56.00;;;;;;5066708;28;19908;-73
2021/06/07 10:09:39;;;;;;;;;;;23.20;56.00;;;;;;5066220;28;20000;-73
2021/06/07 10:12:26;;;;;;;;;;;23.20;56.40;;;;;;5068508;28;20019;-73
2021/06/07 10:14:52;;;;;;;;;;;23.30;53.60;;;;;;5069005;28;20271;-74
2021/06/07 10:17:17;;;;;;;;;;;23.40;56.20;;;;;;5062412;28;19913;-74
2021/06/07 10:22:11;;;;;;;;;;;23.50;55.70;;;;;;5068917;28;19908;-73
2021/06/07 10:24:37;;;;;;;;;;;23.50;55.30;;;;;;5069717;28;19915;-73
2021/06/07 10:27:05;;;;;;;;;;;23.60;57.20;;;;;;5067665;28;19966;-74
2021/06/07 10:29:32;;;;;;;;;;;23.80;57.50;;;;;;5068735;28;19908;-74
2021/06/07 10:32:04;;;;;;;;;;;23.80;55.70;;;;;;5069465;28;20280;-73
2021/06/07 10:34:44;;;;;;;;;;;23.90;55.00;;;;;;5069098;28;19913;-74
2021/06/07 10:37:10;;;;;;;;;;;24.00;55.40;;;;;;5063791;28;19920;-74
2021/06/07 10:39:36;;;;;;;;;;;24.10;53.90;;;;;;5066225;28;20328;-73
2021/06/07 10:42:07;;;;;;;;;;;24.30;53.30;;;;;;5069972;28;19908;-73
2021/06/07 10:44:41;;;;;;;;;;;24.50;54.60;;;;;;5059396;28;19961;-71
2021/06/07 10:47:11;;;;;;;;;;;24.60;53.20;;;;;;5065892;28;19923;-71
2021/06/07 10:49:50;;;;;;;;;;;24.70;52.40;;;;;;5069394;28;19908;-71
2021/06/07 10:52:20;;;;;;;;;;;25.00;52.60;;;;;;5069532;28;19908;-71
2021/06/07 10:54:47;;;;;;;;;;;25.10;50.40;;;;;;5068626;28;19924;-71
2021/06/07 10:57:50;;;;;;;;;;;25.30;47.80;;;;;;5066613;28;20034;-71
2021/06/07 11:00:21;;;;;;;;;;;25.40;50.80;;;;;;5046145;28;19962;-74
2021/06/07 11:02:47;;;;;;;;;;;25.60;48.60;;;;;;5065600;28;19927;-72
2021/06/07 11:05:17;;;;;;;;;;;25.90;46.90;;;;;;5068608;28;19924;-71
2021/06/07 11:07:45;;;;;;;;;;;26.00;46.80;;;;;;5063330;28;20482;-71
2021/06/07 11:10:22;;;;;;;;;;;26.20;47.00;;;;;;5064377;28;19909;-72
2021/06/07 11:12:56;;;;;;;;;;;26.40;49.20;;;;;;5067124;28;19909;-72
2021/06/07 11:15:23;;;;;;;;;;;26.70;49.00;;;;;;5062232;28;20632;-71
2021/06/07 11:17:49;;;;;;;;;;;26.90;48.40;;;;;;5065490;28;20375;-71
2021/06/07 11:20:34;;;;;;;;;;;27.20;48.70;;;;;;5067493;28;19998;-71
2021/06/07 11:23:04;;;;;;;;;;;27.50;48.90;;;;;;5066698;28;19947;-72
2021/06/07 11:25:30;;;;;;;;;;;27.90;46.90;;;;;;5068324;28;19928;-73
2021/06/07 11:27:55;;;;;;;;;;;28.20;43.50;;;;;;5068011;28;19916;-71
2021/06/07 11:30:21;;;;;;;;;;;28.60;45.10;;;;;;5068668;28;20127;-73
2021/06/07 11:32:49;;;;;;;;;;;29.10;43.10;;;;;;5067987;28;20370;-74
2021/06/07 11:35:47;;;;;;;;;;;29.50;43.10;;;;;;5067499;28;20367;-72
2021/06/07 11:38:27;;;;;;;;;;;29.90;40.00;;;;;;5023735;28;19942;-72
2021/06/07 11:40:53;;;;;;;;;;;30.40;42.80;;;;;;5068125;28;19912;-73
2021/06/07 11:43:38;;;;;;;;;;;30.90;42.50;;;;;;5067333;28;19908;-72
2021/06/07 11:46:04;;;;;;;;;;;31.30;40.90;;;;;;5068033;28;20279;-72
2021/06/07 11:48:48;;;;;;;;;;;31.90;38.80;;;;;;5067024;28;19915;-73
2021/06/07 11:51:29;;;;;;;;;;;32.30;40.80;;;;;;5066707;28;20282;-74
2021/06/07 11:53:54;;;;;;;;;;;32.50;39.50;;;;;;5064846;28;19915;-71
2021/06/07 11:56:21;;;;;;;;;;;32.90;37.00;;;;;;5063187;28;19913;-72
2021/06/07 11:58:47;;;;;;;;;;;33.30;32.80;;;;;;5066726;28;19912;-73
2021/06/07 12:01:12;;;;;;;;;;;33.40;33.00;;;;;;5068082;28;19915;-73
2021/06/07 12:03:42;;;;;;;;;;;33.90;33.90;;;;;;5065983;28;19909;-72
2021/06/07 12:06:08;;;;;;;;;;;33.40;35.30;;;;;;5064432;28;19915;-74
2021/06/07 12:08:33;;;;;;;;;;;33.70;31.90;;;;;;5067304;28;20002;-72
2021/06/07 12:11:04;;;;;;;;;;;34.10;29.50;;;;;;5068721;28;19908;-73
2021/06/07 12:13:40;;;;;;;;;;;34.60;31.90;;;;;;5067822;28;19908;-73
2021/06/07 12:16:11;;;;;;;;;;;35.00;31.20;;;;;;5056367;28;19951;-71
2021/06/07 12:18:42;;;;;;;;;;;35.30;33.90;;;;;;5067775;28;19952;-72
2021/06/07 12:21:12;;;;;;;;;;;35.20;31.40;;;;;;5067942;28;20015;-72
2021/06/07 12:23:42;;;;;;;;;;;35.70;31.80;;;;;;5068170;28;19908;-75
2021/06/07 12:29:24;;;;;;;;;;;36.50;32.40;;;;;;5075699;28;19970;-72
2021/06/07 12:32:10;;;;;;;;;;;37.20;29.20;;;;;;5071695;28;19928;-72
2021/06/07 12:34:36;;;;;;;;;;;37.00;30.60;;;;;;5072260;28;19965;-72
2021/06/07 12:37:02;;;;;;;;;;;37.10;30.40;;;;;;5052917;28;19908;-72
2021/06/07 12:39:28;;;;;;;;;;;37.50;27.60;;;;;;5071076;28;20294;-71
2021/06/07 12:41:54;;;;;;;;;;;37.70;27.90;;;;;;5072312;28;19905;-72
2021/06/07 12:44:20;;;;;;;;;;;37.70;26.40;;;;;;5069187;28;19912;-72
2021/06/07 12:46:50;;;;;;;;;;;38.00;27.40;;;;;;5070521;28;19912;-72
2021/06/07 12:49:26;;;;;;;;;;;38.20;27.40;;;;;;5062412;28;20351;-72
2021/06/07 12:52:02;;;;;;;;;;;38.30;28.20;;;;;;5072044;28;19911;-72
2021/06/07 12:54:30;;;;;;;;;;;38.40;28.90;;;;;;5071369;28;19917;-72
2021/06/07 12:56:57;;;;;;;;;;;38.00;29.60;;;;;;5071111;28;19915;-72
2021/06/07 12:59:32;;;;;;;;;;;37.40;30.70;;;;;;5071002;28;20159;-72
2021/06/07 13:01:58;;;;;;;;;;;37.20;28.70;;;;;;5071271;28;19935;-72
2021/06/07 13:04:27;;;;;;;;;;;37.60;28.50;;;;;;5061445;28;19916;-72
2021/06/07 13:06:53;;;;;;;;;;;38.00;29.60;;;;;;5069001;28;20006;-72
2021/06/07 13:09:34;;;;;;;;;;;38.30;27.90;;;;;;5068561;28;20423;-72
2021/06/07 13:12:00;;;;;;;;;;;38.60;28.10;;;;;;5070759;28;19947;-72
2021/06/07 13:14:26;;;;;;;;;;;38.70;25.70;;;;;;5070244;28;19947;-72
2021/06/07 13:16:57;;;;;;;;;;;38.80;26.00;;;;;;5057959;28;20114;-72
2021/06/07 13:19:26;;;;;;;;;;;38.70;26.20;;;;;;5070400;28;19999;-72
2021/06/07 13:21:55;;;;;;;;;;;38.70;27.00;;;;;;5059375;28;19919;-72
2021/06/07 13:24:33;;;;;;;;;;;38.90;25.40;;;;;;5070226;28;20358;-72
2021/06/07 13:27:00;;;;;;;;;;;39.10;26.60;;;;;;5069297;28;20424;-72
2021/06/07 13:29:27;;;;;;;;;;;38.90;24.40;;;;;;5064089;28;19971;-71
2021/06/07 13:32:12;;;;;;;;;;;38.90;25.90;;;;;;5068341;28;19919;-71
2021/06/07 13:34:38;;;;;;;;;;;38.90;27.50;;;;;;5060412;28;20072;-71
2021/06/07 13:37:03;;;;;;;;;;;38.90;25.60;;;;;;5066147;28;19962;-72
2021/06/07 13:39:28;;;;;;;;;;;39.10;25.40;;;;;;5068088;28;19956;-73
2021/06/07 13:41:54;;;;;;;;;;;38.90;25.40;;;;;;5066273;28;20326;-74
2021/06/07 13:44:19;;;;;;;;;;;39.10;25.70;;;;;;5062943;28;19908;-71
2021/06/07 13:46:45;;;;;;;;;;;39.10;25.60;;;;;;5065819;28;19952;-72
2021/06/07 13:49:15;;;;;;;;;;;39.20;25.40;;;;;;5049744;28;20470;-72
2021/06/07 13:51:40;;;;;;;;;;;39.30;26.90;;;;;;5070834;28;20080;-72
2021/06/07 13:54:10;;;;;;;;;;;38.70;28.20;;;;;;5066562;28;20609;-73
2021/06/07 13:56:36;;;;;;;;;;;38.60;28.50;;;;;;5070120;28;20438;-72
2021/06/07 13:59:02;;;;;;;;;;;38.90;27.20;;;;;;5063356;28;19944;-74
2021/06/07 14:01:34;;;;;;;;;;;39.10;28.40;;;;;;5066020;28;19916;-72
2021/06/07 14:04:02;;;;;;;;;;;38.80;28.70;;;;;;5071095;28;19911;-75
2021/06/07 14:06:36;;;;;;;;;;;38.90;28.10;;;;;;5068203;28;20259;-72
2021/06/07 14:09:03;;;;;;;;;;;39.00;28.90;;;;;;5066202;28;19934;-73
2021/06/07 14:11:29;;;;;;;;;;;38.60;29.00;;;;;;5069550;28;19908;-74
2021/06/07 14:13:57;;;;;;;;;;;38.60;27.10;;;;;;5070373;28;19931;-72
2021/06/07 14:16:24;;;;;;;;;;;38.70;28.90;;;;;;5061528;28;20149;-73
2021/06/07 14:18:51;;;;;;;;;;;37.40;29.10;;;;;;5066610;28;19923;-73
2021/06/07 14:21:24;;;;;;;;;;;37.40;29.10;;;;;;5065858;28;19923;-74
2021/06/07 14:26:34;;;;;;;;;;;38.50;28.60;;;;;;5069657;28;19919;-74